Time;durP1;ratioP1;P1;durP2;ratioP2;P2;SDS_P1;SDS_P2;PMS_P1;PMS_P2;Temp;Humidity;BMP_temperature;BMP_pressure;BME280_temperature;BME280_humidity;BME280_pressure;Samples;Min_cycle;Max_cycle;Signal;HPM_P1;HPM_P2
2022/08/06 00:00:24;;;;;;;9.77;4.00;;;;;;;9.83;91.71;102469.16;5092890;28;20036;-48
2022/08/06 00:02:50;;;;;;;9.82;4.20;;;;;;;9.81;91.61;102463.06;5092637;28;20020;-49
2022/08/06 00:05:15;;;;;;;9.30;3.90;;;;;;;9.70;92.00;102465.00;5091280;28;20482;-46
2022/08/06 00:07:40;;;;;;;14.63;4.78;;;;;;;9.66;92.43;102463.03;5092359;28;20461;-46
2022/08/06 00:10:05;;;;;;;13.40;4.65;;;;;;;9.53;92.18;102465.69;5092783;28;20024;-48
2022/08/06 00:12:33;;;;;;;11.95;4.00;;;;;;;9.50;92.72;102468.97;5091793;28;20067;-48
2022/08/06 00:14:58;;;;;;;12.63;5.05;;;;;;;9.50;93.03;102471.53;5092517;28;20455;-49
2022/08/06 00:17:24;;;;;;;9.57;4.32;;;;;;;9.46;92.69;102474.69;5092721;28;20027;-49
2022/08/06 00:19:50;;;;;;;11.35;4.43;;;;;;;9.31;92.64;102476.34;5091310;28;20028;-49
2022/08/06 00:22:15;;;;;;;13.05;3.95;;;;;;;9.18;92.26;102475.59;5092597;28;20047;-48
2022/08/06 00:24:41;;;;;;;14.48;4.28;;;;;;;9.14;92.79;102476.22;5092148;28;20027;-48
2022/08/06 00:27:06;;;;;;;10.95;4.35;;;;;;;9.02;92.44;102478.03;5091711;28;20123;-44
2022/08/06 00:29:31;;;;;;;8.88;4.00;;;;;;;8.99;92.96;102477.84;5092794;28;20546;-48
2022/08/06 00:31:57;;;;;;;8.55;4.10;;;;;;;8.98;92.62;102484.66;5096068;28;20039;-48
2022/08/06 00:34:22;;;;;;;8.57;4.10;;;;;;;8.87;92.45;102491.69;5095319;28;20099;-47
2022/08/06 00:36:47;;;;;;;9.60;4.43;;;;;;;8.70;92.59;102493.22;5095992;28;20434;-49
2022/08/06 00:39:12;;;;;;;8.75;4.25;;;;;;;8.67;93.23;102493.00;5096011;28;20030;-49
2022/08/06 00:41:38;;;;;;;11.63;5.32;;;;;;;8.79;94.95;102494.56;5095123;28;20062;-48
2022/08/06 00:44:03;;;;;;;14.30;5.18;;;;;;;8.80;95.79;102498.94;5096091;28;20140;-48
2022/08/06 00:46:29;;;;;;;15.50;6.15;;;;;;;8.78;96.24;102492.78;5095896;28;20055;-47
2022/08/06 00:48:54;;;;;;;10.77;5.90;;;;;;;8.73;96.31;102493.41;5095107;28;20689;-45
2022/08/06 00:51:23;;;;;;;12.65;5.00;;;;;;;8.60;95.25;102495.97;5095900;28;20027;-45
2022/08/06 00:53:52;;;;;;;13.40;4.93;;;;;;;8.63;95.34;102498.75;5094587;28;20111;-49
2022/08/06 00:56:18;;;;;;;9.77;4.35;;;;;;;8.47;94.98;102503.69;5095371;28;20111;-47
2022/08/06 00:58:43;;;;;;;10.40;5.05;;;;;;;8.49;95.37;102509.81;5095806;28;20111;-46
2022/08/06 01:01:10;;;;;;;9.80;4.95;;;;;;;8.35;95.61;102507.22;5095721;28;20384;-45
2022/08/06 01:03:36;;;;;;;8.07;4.70;;;;;;;8.28;95.34;102507.59;5094839;28;20027;-48
2022/08/06 01:06:01;;;;;;;9.52;5.38;;;;;;;8.21;95.80;102506.31;5095409;28;20282;-48
2022/08/06 01:08:27;;;;;;;10.02;5.03;;;;;;;8.20;96.08;102508.78;5094891;28;20020;-48
2022/08/06 01:10:52;;;;;;;12.75;5.65;;;;;;;8.25;96.20;102507.41;5095233;28;20085;-49
2022/08/06 01:13:17;;;;;;;11.43;4.63;;;;;;;8.25;95.87;102517.69;5095750;28;20028;-49
2022/08/06 01:15:52;;;;;;;8.55;5.25;;;;;;;8.27;95.85;102520.34;5094630;28;20027;-48
2022/08/06 01:18:30;;;;;;;12.10;4.97;;;;;;;8.24;95.91;102529.63;5095724;28;20046;-47
2022/08/06 01:20:58;;;;;;;;;;;;;;;8.35;93.41;102530.34;5094807;28;20060;-46
2022/08/06 01:24:11;;;;;;;17.17;6.68;;;;;;;8.28;96.43;102524.69;5094839;28;19912;-48
2022/08/06 01:26:49;;;;;;;9.82;6.07;;;;;;;8.28;96.69;102530.72;5077437;28;20395;-49
2022/08/06 01:29:29;;;;;;;12.48;5.95;;;;;;;8.31;96.83;102532.59;5095131;28;20111;-48
2022/08/06 01:32:17;;;;;;;12.98;6.07;;;;;;;8.26;96.81;102528.84;5095168;28;20038;-47
2022/08/06 01:34:51;;;;;;;10.80;6.07;;;;;;;8.26;97.35;102528.84;5094657;28;20056;-48
2022/08/06 01:37:30;;;;;;;9.05;5.45;;;;;;;8.17;96.58;102535.16;5094374;28;20115;-49
2022/08/06 01:40:00;;;;;;;12.38;6.60;;;;;;;8.02;96.58;102536.69;5094817;28;20066;-48
2022/08/06 01:42:29;;;;;;;12.35;6.00;;;;;;;8.05;96.93;102537.75;5095031;28;20040;-49
2022/08/06 01:45:00;;;;;;;10.68;5.95;;;;;;;7.86;96.25;102533.09;5093818;28;20054;-50
2022/08/06 01:47:29;;;;;;;11.55;5.72;;;;;;;7.76;96.08;102533.25;5095057;28;20024;-48
2022/08/06 01:49:57;;;;;;;8.10;5.10;;;;;;;7.72;96.67;102528.66;5094171;28;20050;-48
2022/08/06 01:52:25;;;;;;;10.15;6.07;;;;;;;7.69;97.26;102536.16;5094174;28;20115;-48
2022/08/06 01:54:53;;;;;;;8.27;6.05;;;;;;;7.83;97.89;102531.97;5094686;28;20027;-49
2022/08/06 01:57:20;;;;;;;10.88;5.93;;;;;;;7.89;98.36;102524.72;5094736;28;20024;-49
2022/08/06 01:59:50;;;;;;;;;;;;;;;7.94;95.67;102540.41;5094264;28;20391;-48
2022/08/06 02:02:22;;;;;;;11.43;6.80;;;;;;;8.08;98.23;102532.84;5094569;28;20291;-49
2022/08/06 02:04:54;;;;;;;12.27;7.03;;;;;;;8.03;98.66;102526.50;5093286;28;20016;-48
2022/08/06 02:07:24;;;;;;;13.27;7.22;;;;;;;8.00;99.39;102528.84;5094780;28;20028;-48
2022/08/06 02:09:51;;;;;;;12.23;7.00;;;;;;;7.99;99.06;102524.53;5094411;28;20028;-48
2022/08/06 02:12:25;;;;;;;9.63;7.15;;;;;;;7.92;99.10;102532.59;5093821;28;20024;-47
2022/08/06 02:14:58;;;;;;;12.05;6.65;;;;;;;7.80;98.16;102534.31;5094160;28;20069;-49
2022/08/06 02:17:27;;;;;;;10.25;6.55;;;;;;;7.80;98.74;102530.09;5094321;28;20035;-48
2022/08/06 02:19:55;;;;;;;12.75;6.25;;;;;;;7.86;98.44;102527.03;5093403;28;20031;-49
2022/08/06 02:22:22;;;;;;;12.07;6.32;;;;;;;7.82;97.91;102533.63;5094427;28;20047;-48
2022/08/06 02:24:48;;;;;;;9.27;5.60;;;;;;;7.81;97.16;102537.03;5093790;28;20020;-49
2022/08/06 02:27:17;;;;;;;8.15;5.40;;;;;;;7.84;96.79;102544.91;5093624;28;20039;-49
2022/08/06 02:29:45;;;;;;;11.93;6.00;;;;;;;7.78;96.62;102541.03;5093947;28;20024;-44
2022/08/06 02:32:13;;;;;;;9.38;5.10;;;;;;;7.71;96.47;102542.31;5093680;28;20028;-48
2022/08/06 02:34:38;;;;;;;8.82;5.40;;;;;;;7.70;96.08;102532.81;5092812;28;20035;-48
2022/08/06 02:37:16;;;;;;;9.90;5.50;;;;;;;7.65;96.89;102531.63;5093940;28;20095;-47
2022/08/06 02:39:49;;;;;;;11.07;6.40;;;;;;;7.67;97.91;102545.44;5093035;28;20471;-46
2022/08/06 02:42:19;;;;;;;10.25;6.13;;;;;;;7.73;98.11;102544.19;5093907;28;20035;-48
2022/08/06 02:44:47;;;;;;;8.98;6.25;;;;;;;7.63;98.04;102531.53;5093464;28;20052;-48
2022/08/06 02:47:14;;;;;;;;;;;;;;;7.80;96.19;102537.81;5093598;28;20048;-48
2022/08/06 02:49:44;;;;;;;10.00;5.80;;;;;;;7.71;97.47;102542.31;5093292;28;20351;-49
2022/08/06 02:52:21;;;;;;;10.35;5.85;;;;;;;7.71;98.01;102542.31;5093416;28;20463;-47
2022/08/06 02:54:54;;;;;;;11.20;6.20;;;;;;;7.75;97.83;102539.16;5092645;28;20032;-48
2022/08/06 02:57:28;;;;;;;10.57;6.60;;;;;;;7.74;97.79;102540.81;5093844;28;20035;-48
2022/08/06 03:00:02;;;;;;;11.68;6.22;;;;;;;7.69;97.68;102546.44;5093275;28;20031;-48
2022/08/06 03:02:30;;;;;;;15.50;6.78;;;;;;;7.70;98.68;102543.09;5093129;28;20035;-47
2022/08/06 03:04:57;;;;;;;13.20;6.72;;;;;;;7.71;99.26;102550.00;5092865;28;20024;-47
2022/08/06 03:07:27;;;;;;;14.52;8.73;;;;;;;7.80;100.00;102547.16;5093180;28;20031;-48
2022/08/06 03:09:54;;;;;;;11.77;7.50;;;;;;;7.83;100.00;102540.56;5092761;28;20041;-49
2022/08/06 03:12:20;;;;;;;12.63;7.43;;;;;;;7.69;100.00;102549.88;5093341;28;20028;-47
2022/08/06 03:14:48;;;;;;;12.02;7.15;;;;;;;7.71;100.00;102552.56;5092935;28;20024;-46
2022/08/06 03:17:15;;;;;;;13.77;6.75;;;;;;;7.54;99.18;102542.03;5092669;28;20422;-46
2022/08/06 03:19:43;;;;;;;11.67;7.03;;;;;;;7.42;98.49;102559.13;5092778;28;20020;-46
2022/08/06 03:22:09;;;;;;;11.38;6.38;;;;;;;7.34;98.51;102550.00;5092439;28;20016;-48
2022/08/06 03:24:37;;;;;;;15.13;6.97;;;;;;;7.30;98.91;102551.47;5093252;28;20024;-47
2022/08/06 03:27:04;;;;;;;11.05;6.93;;;;;;;7.34;99.98;102547.44;5093068;28;20426;-46
2022/08/06 03:29:31;;;;;;;14.65;8.27;;;;;;;7.40;100.00;102556.47;5092499;28;20020;-48
2022/08/06 03:31:58;;;;;;;15.15;8.63;;;;;;;7.45;100.00;102559.34;5092826;28;20111;-47
2022/08/06 03:34:24;;;;;;;17.45;8.43;;;;;;;7.46;100.00;102558.53;5092584;28;20474;-45
2022/08/06 03:36:51;;;;;;;15.27;8.15;;;;;;;7.43;100.00;102560.91;5091782;28;20047;-47
2022/08/06 03:39:17;;;;;;;12.18;6.82;;;;;;;7.36;100.00;102554.47;5093176;28;20107;-47
2022/08/06 03:41:44;;;;;;;11.30;5.57;;;;;;;7.25;99.89;102565.63;5092789;28;20107;-47
2022/08/06 03:44:09;;;;;;;9.32;6.25;;;;;;;7.16;99.13;102563.31;5092107;28;20063;-47
2022/08/06 03:46:42;;;;;;;12.32;6.57;;;;;;;7.07;99.27;102565.22;5092867;28;20413;-48
2022/08/06 03:49:14;;;;;;;13.40;7.00;;;;;;;7.05;99.74;102567.69;5092270;28;20031;-48
2022/08/06 03:51:40;;;;;;;12.00;6.97;;;;;;;7.10;100.00;102565.44;5092159;28;20042;-49
2022/08/06 03:54:07;;;;;;;16.77;8.30;;;;;;;7.17;100.00;102570.22;5093023;28;20101;-48
2022/08/06 03:56:36;;;;;;;11.40;8.27;;;;;;;7.20;100.00;102572.13;5092603;28;20031;-44
2022/08/06 03:59:04;;;;;;;13.50;8.65;;;;;;;7.25;100.00;102569.09;5092011;28;20043;-47
2022/08/06 04:01:34;;;;;;;16.98;9.73;;;;;;;7.31;100.00;102585.69;5092658;28;20024;-48
2022/08/06 04:04:00;;;;;;;13.77;8.52;;;;;;;7.33;100.00;102584.13;5092715;28;20387;-47
2022/08/06 04:06:27;;;;;;;15.00;8.65;;;;;;;7.28;100.00;102591.50;5095509;28;20486;-46
2022/08/06 04:08:53;;;;;;;13.37;8.57;;;;;;;7.36;100.00;102589.47;5096698;28;20105;-49
2022/08/06 04:11:20;;;;;;;16.38;8.63;;;;;;;7.44;100.00;102592.56;5096009;28;20285;-49
2022/08/06 04:13:46;;;;;;;17.88;9.40;;;;;;;7.47;100.00;102588.56;5096571;28;20032;-46
2022/08/06 04:16:13;;;;;;;15.00;9.50;;;;;;;7.49;100.00;102589.56;5096696;28;20024;-48
2022/08/06 04:18:40;;;;;;;15.50;8.98;;;;;;;7.51;100.00;102595.69;5095763;28;20020;-47
2022/08/06 04:21:09;;;;;;;20.05;9.63;;;;;;;7.51;100.00;102589.66;5096567;28;20036;-43
2022/08/06 04:23:37;;;;;;;14.80;8.32;;;;;;;7.53;100.00;102590.69;5096237;28;20497;-48
2022/08/06 04:26:05;;;;;;;11.88;8.15;;;;;;;7.41;100.00;102601.84;5095632;28;20367;-49
2022/08/06 04:28:35;;;;;;;9.20;6.53;;;;;;;7.29;100.00;102600.09;5096413;28;20097;-49
2022/08/06 04:31:01;;;;;;;7.32;5.80;;;;;;;7.16;99.94;102606.91;5096094;28;20028;-49
2022/08/06 04:33:29;;;;;;;9.88;6.57;;;;;;;7.14;100.00;102603.34;5095979;28;20020;-43
2022/08/06 04:35:54;;;;;;;;;;;;;;;7.32;99.35;102602.88;5095853;28;20467;-44
2022/08/06 04:38:23;;;;;;;10.73;6.43;;;;;;;7.07;99.40;102606.25;5095250;28;19919;-44
2022/08/06 04:40:48;;;;;;;10.38;6.63;;;;;;;7.01;99.70;102608.34;5095405;28;20107;-43
2022/08/06 04:43:14;;;;;;;10.30;6.18;;;;;;;6.98;99.85;102605.59;5095854;28;20054;-45
2022/08/06 04:45:41;;;;;;;13.02;6.65;;;;;;;6.99;100.00;102612.50;5095890;28;20036;-44
2022/08/06 04:48:09;;;;;;;13.20;7.43;;;;;;;6.99;100.00;102613.38;5095648;28;20024;-48
2022/08/06 04:50:35;;;;;;;;;;;;;;;7.16;99.75;102614.59;5095682;28;20086;-43
2022/08/06 04:53:19;;;;;;;9.23;7.03;;;;;;;7.16;100.00;102621.41;5095687;28;19916;-43
2022/08/06 04:55:46;;;;;;;11.80;7.25;;;;;;;7.18;100.00;102625.84;5095178;28;20024;-46
2022/08/06 04:58:13;;;;;;;13.60;8.68;;;;;;;7.40;100.00;102624.84;5096113;28;20020;-43
2022/08/06 05:00:44;;;;;;;13.57;9.30;;;;;;;7.43;100.00;102622.47;5094967;28;20110;-43
2022/08/06 05:03:10;;;;;;;16.27;10.43;;;;;;;7.67;100.00;102623.31;5095957;28;20024;-45
2022/08/06 05:05:41;;;;;;;21.55;12.15;;;;;;;7.91;100.00;102623.22;5095221;28;20089;-43
2022/08/06 05:08:09;;;;;;;18.98;11.88;;;;;;;8.03;100.00;102623.19;5094870;28;20020;-43
2022/08/06 05:11:11;;;;;;;20.05;12.73;;;;;;;8.14;100.00;102626.50;5095363;28;20353;-43
2022/08/06 05:13:39;;;;;;;18.17;11.82;;;;;;;8.23;100.00;102628.00;5081978;28;20115;-45
2022/08/06 05:16:08;;;;;;;18.77;10.82;;;;;;;8.27;100.00;102638.50;5094426;28;20546;-43
2022/08/06 05:18:38;;;;;;;18.45;10.60;;;;;;;8.34;100.00;102630.41;5095168;28;20078;-44
2022/08/06 05:21:04;;;;;;;18.45;10.73;;;;;;;8.40;100.00;102635.97;5095297;28;20028;-44
2022/08/06 05:23:38;;;;;;;15.82;11.30;;;;;;;8.49;100.00;102634.03;5095084;28;20030;-44
2022/08/06 05:26:04;;;;;;;20.77;12.48;;;;;;;8.66;100.00;102634.28;5095538;28;20024;-46
2022/08/06 05:28:30;;;;;;;24.05;13.95;;;;;;;8.77;100.00;102645.28;5094857;28;20111;-43
2022/08/06 05:30:56;;;;;;;21.88;12.82;;;;;;;8.90;100.00;102640.16;5094269;28;20024;-45
2022/08/06 05:33:30;;;;;;;17.05;12.57;;;;;;;9.03;100.00;102646.97;5094946;28;20016;-44
2022/08/06 05:35:57;;;;;;;21.95;12.85;;;;;;;9.13;100.00;102649.34;5094002;28;20085;-45
2022/08/06 05:38:23;;;;;;;18.73;13.13;;;;;;;9.26;100.00;102650.13;5094827;28;20028;-44
2022/08/06 05:40:49;;;;;;;18.52;13.48;;;;;;;9.39;100.00;102655.28;5094975;28;20182;-48
2022/08/06 05:43:15;;;;;;;20.55;12.25;;;;;;;9.53;100.00;102657.03;5093778;28;20032;-43
2022/08/06 05:45:43;;;;;;;19.70;12.73;;;;;;;9.68;100.00;102656.22;5094561;28;20024;-47
2022/08/06 05:48:11;;;;;;;23.13;13.55;;;;;;;9.76;100.00;102665.31;5094582;28;20482;-47
2022/08/06 05:50:43;;;;;;;20.80;13.38;;;;;;;9.89;100.00;102662.69;5094432;28;20020;-44
2022/08/06 05:53:17;;;;;;;21.88;13.55;;;;;;;10.00;100.00;102658.19;5094686;28;20027;-49
2022/08/06 05:55:50;;;;;;;20.67;14.30;;;;;;;10.13;100.00;102649.53;5094110;28;20028;-44
2022/08/06 05:58:23;;;;;;;23.73;14.30;;;;;;;10.28;100.00;102659.88;5094156;28;20031;-45
2022/08/06 06:00:51;;;;;;;20.15;13.52;;;;;;;10.38;100.00;102658.78;5094413;28;20024;-47
2022/08/06 06:03:16;;;;;;;;;;;;;;;10.36;100.00;102660.38;5094951;28;20084;-49
2022/08/06 06:05:43;;;;;;;17.83;12.60;;;;;;;10.51;100.00;102660.41;5092983;28;19998;-48
2022/08/06 06:08:09;;;;;;;18.13;12.55;;;;;;;10.59;100.00;102664.31;5094468;28;20028;-47
2022/08/06 06:10:37;;;;;;;21.02;11.57;;;;;;;10.65;100.00;102668.91;5094022;28;20043;-48
2022/08/06 06:13:05;;;;;;;15.70;10.88;;;;;;;10.75;100.00;102671.22;5093289;28;20089;-49
2022/08/06 06:15:37;;;;;;;16.27;10.70;;;;;;;10.85;100.00;102667.50;5094761;28;20035;-47
2022/08/06 06:18:29;;;;;;;20.35;10.95;;;;;;;10.94;100.00;102667.16;5093607;28;20458;-48
2022/08/06 06:21:15;;;;;;;15.30;10.18;;;;;;;11.13;100.00;102674.22;5093672;28;20028;-48
2022/08/06 06:23:52;;;;;;;18.80;10.80;;;;;;;11.20;100.00;102674.66;5093775;28;20024;-49
2022/08/06 06:26:20;;;;;;;15.52;10.00;;;;;;;11.29;100.00;102671.72;5093785;28;20169;-49
2022/08/06 06:28:59;;;;;;;18.55;11.18;;;;;;;11.35;100.00;102678.94;5092999;28;20048;-45
2022/08/06 06:31:30;;;;;;;17.30;10.35;;;;;;;11.41;100.00;102675.78;5093732;28;20060;-49
2022/08/06 06:34:01;;;;;;;17.27;9.88;;;;;;;11.51;100.00;102670.34;5093125;28;20028;-44
2022/08/06 06:36:36;;;;;;;24.58;10.55;;;;;;;11.58;100.00;102674.13;5093962;28;20056;-44
2022/08/06 06:39:11;;;;;;;14.80;9.90;;;;;;;11.63;100.00;102680.44;5093178;28;20054;-46
2022/08/06 06:41:42;;;;;;;14.75;9.80;;;;;;;11.74;100.00;102676.75;5093778;28;20467;-44
2022/08/06 06:44:07;;;;;;;18.42;10.15;;;;;;;11.89;100.00;102681.88;5093746;28;20102;-43
2022/08/06 06:46:38;;;;;;;19.30;9.50;;;;;;;12.01;100.00;102682.53;5093104;28;20371;-44
2022/08/06 06:49:14;;;;;;;16.52;9.75;;;;;;;12.19;100.00;102684.34;5093943;28;20024;-45
2022/08/06 06:51:55;;;;;;;13.35;7.97;;;;;;;12.26;100.00;102682.97;5093342;28;20056;-48
2022/08/06 06:54:43;;;;;;;14.43;7.70;;;;;;;12.39;100.00;102685.34;5093092;28;20039;-47
2022/08/06 06:57:11;;;;;;;17.02;7.93;;;;;;;12.60;100.00;102687.25;5093837;28;20020;-48
2022/08/06 06:59:41;;;;;;;16.75;7.18;;;;;;;12.79;100.00;102686.50;5093023;28;20016;-45
2022/08/06 07:02:16;;;;;;;14.93;6.47;;;;;;;12.91;99.94;102681.03;5092010;28;20028;-44
2022/08/06 07:04:42;;;;;;;12.25;6.72;;;;;;;13.14;100.00;102685.66;5091975;28;20016;-46
2022/08/06 07:07:08;;;;;;;14.43;6.05;;;;;;;13.34;98.54;102688.31;5091496;28;20016;-45
2022/08/06 07:09:35;;;;;;;16.63;7.03;;;;;;;13.55;98.34;102691.06;5092292;28;20576;-44
2022/08/06 07:12:02;;;;;;;9.60;5.60;;;;;;;13.68;95.41;102683.88;5092256;28;20027;-47
2022/08/06 07:14:29;;;;;;;11.77;5.72;;;;;;;13.83;94.54;102685.44;5091560;28;20277;-46
2022/08/06 07:16:58;;;;;;;15.05;4.70;;;;;;;13.93;91.16;102688.47;5092424;28;20032;-44
2022/08/06 07:19:25;;;;;;;11.27;5.03;;;;;;;14.10;91.38;102684.03;5092011;28;20031;-44
2022/08/06 07:21:50;;;;;;;10.50;5.20;;;;;;;14.16;88.86;102687.81;5091733;28;20111;-45
2022/08/06 07:24:17;;;;;;;10.45;4.78;;;;;;;14.32;89.23;102685.88;5092933;28;20020;-47
2022/08/06 07:26:44;;;;;;;15.57;5.00;;;;;;;14.49;88.54;102695.25;5092465;28;20036;-45
2022/08/06 07:29:11;;;;;;;13.25;3.70;;;;;;;14.59;86.34;102690.47;5092401;28;20511;-45
2022/08/06 07:31:38;;;;;;;10.00;3.40;;;;;;;14.70;84.54;102688.38;5092266;28;20035;-45
2022/08/06 07:34:05;;;;;;;7.37;3.33;;;;;;;14.91;85.46;102699.66;5092056;28;20028;-45
2022/08/06 07:36:46;;;;;;;7.70;2.65;;;;;;;14.99;80.01;102710.38;5092035;28;20122;-44
2022/08/06 07:39:15;;;;;;;6.65;1.90;;;;;;;15.17;78.35;102711.91;5092491;28;20108;-45
2022/08/06 07:41:41;;;;;;;5.35;2.10;;;;;;;15.24;76.17;102707.03;5092140;28;20385;-48
2022/08/06 07:44:09;;;;;;;10.32;2.08;;;;;;;15.45;78.97;102712.22;5091654;28;20043;-45
2022/08/06 07:46:39;;;;;;;;;;;;;;;15.50;81.34;102709.78;5092917;28;20130;-45
2022/08/06 07:49:06;;;;;;;8.13;1.80;;;;;;;15.59;75.05;102706.66;5092217;28;19912;-47
2022/08/06 07:51:35;;;;;;;8.38;1.65;;;;;;;15.74;73.55;102712.44;5091845;28;20429;-45
2022/08/06 07:54:06;;;;;;;7.30;1.20;;;;;;;15.83;72.31;102716.25;5092168;28;20430;-45
2022/08/06 07:56:34;;;;;;;3.42;1.10;;;;;;;15.97;71.04;102715.03;5091948;28;20020;-45
2022/08/06 07:59:00;;;;;;;4.28;1.35;;;;;;;16.11;71.46;102711.25;5092154;28;20056;-46
2022/08/06 08:01:26;;;;;;;6.70;1.75;;;;;;;16.30;71.23;102714.53;5092314;28;20020;-45
2022/08/06 08:06:38;;;;;;;6.00;1.70;;;;;;;16.67;70.33;102710.59;5092645;28;20039;-46
2022/08/06 08:09:09;;;;;;;6.13;1.40;;;;;;;16.81;67.55;102715.38;5092506;28;20024;-49
2022/08/06 08:11:40;;;;;;;5.85;1.27;;;;;;;17.07;65.33;102721.50;5091953;28;20075;-49
2022/08/06 08:14:07;;;;;;;3.83;1.30;;;;;;;17.30;65.24;102719.66;5092826;28;20043;-45
2022/08/06 08:16:34;;;;;;;7.95;1.52;;;;;;;17.39;64.80;102725.16;5091997;28;20024;-46
2022/08/06 08:19:00;;;;;;;5.95;1.38;;;;;;;17.46;61.91;102725.34;5091844;28;20089;-49
2022/08/06 08:21:26;;;;;;;7.88;1.20;;;;;;;17.51;59.96;102719.44;5092036;28;20028;-50
2022/08/06 08:23:52;;;;;;;5.40;1.00;;;;;;;17.58;59.55;102725.72;5092137;28;20123;-44
2022/08/06 08:26:17;;;;;;;4.88;1.00;;;;;;;17.51;62.06;102718.56;5092013;28;20024;-48
2022/08/06 08:28:42;;;;;;;7.63;1.10;;;;;;;17.61;61.27;102720.56;5092001;28;20024;-50
2022/08/06 08:31:08;;;;;;;5.22;1.35;;;;;;;17.65;61.25;102727.69;5092374;28;20024;-44
2022/08/06 08:33:34;;;;;;;4.10;1.00;;;;;;;17.73;58.40;102730.50;5091794;28;20024;-46
2022/08/06 08:36:00;;;;;;;4.65;1.00;;;;;;;17.88;58.48;102730.06;5091986;28;20051;-48
2022/08/06 08:38:30;;;;;;;5.45;0.88;;;;;;;18.06;58.43;102730.66;5091382;28;20503;-47
2022/08/06 08:40:58;;;;;;;2.80;0.82;;;;;;;18.17;56.32;102724.84;5092008;28;20020;-44
2022/08/06 08:43:36;;;;;;;4.82;1.20;;;;;;;18.23;57.41;102727.63;5092373;28;20055;-45
2022/08/06 08:46:03;;;;;;;4.50;1.00;;;;;;;18.37;56.53;102721.06;5091794;28;20142;-45
2022/08/06 08:48:29;;;;;;;5.47;1.30;;;;;;;18.34;54.69;102720.97;5092412;28;20024;-45
2022/08/06 08:50:58;;;;;;;4.70;1.27;;;;;;;18.69;55.08;102726.25;5092010;28;20375;-50
2022/08/06 08:53:48;;;;;;;3.47;0.93;;;;;;;18.75;53.21;102729.03;5095472;28;20032;-45
2022/08/06 08:56:16;;;;;;;3.65;0.82;;;;;;;18.91;52.63;102724.22;5095585;28;20019;-44
2022/08/06 08:58:41;;;;;;;3.83;0.98;;;;;;;19.03;52.42;102727.16;5094645;28;20489;-44
2022/08/06 09:01:08;;;;;;;4.43;0.90;;;;;;;19.00;48.74;102731.41;5094910;28;20036;-46
2022/08/06 09:03:35;;;;;;;4.33;0.80;;;;;;;19.32;49.43;102731.31;5095257;28;20447;-45
2022/08/06 09:06:02;;;;;;;3.25;0.80;;;;;;;19.36;48.73;102727.91;5095052;28;20035;-45
2022/08/06 09:08:27;;;;;;;6.83;1.27;;;;;;;19.58;51.18;102729.28;5095177;28;20157;-45
2022/08/06 09:10:53;;;;;;;9.20;1.13;;;;;;;19.24;49.43;102738.97;5095317;28;20352;-48
2022/08/06 09:13:18;;;;;;;414.92;28.80;;;;;;;18.89;51.04;102741.56;5094630;28;20117;-47
2022/08/06 09:15:44;;;;;;;32.05;8.15;;;;;;;19.08;52.27;102738.59;5094752;28;20043;-45
2022/08/06 09:18:09;;;;;;;13.68;4.10;;;;;;;19.26;49.37;102737.25;5095443;28;20020;-49
2022/08/06 09:20:36;;;;;;;7.13;1.27;;;;;;;19.53;50.15;102741.38;5094452;28;20082;-45
2022/08/06 09:23:01;;;;;;;5.18;0.90;;;;;;;19.63;48.39;102737.25;5095169;28;20020;-45
2022/08/06 09:25:47;;;;;;;4.03;0.80;;;;;;;19.81;49.67;102742.00;5095476;28;20369;-47
2022/08/06 09:28:37;;;;;;;4.05;0.88;;;;;;;20.02;51.36;102745.06;5094855;28;20056;-51
2022/08/06 09:31:10;;;;;;;3.65;0.80;;;;;;;20.39;50.43;102742.31;5095140;28;20460;-47
2022/08/06 09:33:38;;;;;;;5.82;0.85;;;;;;;20.63;49.70;102741.00;5094706;28;20420;-46
2022/08/06 09:36:06;;;;;;;3.67;0.80;;;;;;;20.73;48.11;102745.56;5094465;28;20020;-46
2022/08/06 09:38:44;;;;;;;3.83;0.80;;;;;;;20.83;44.96;102734.41;5095044;28;20424;-45
2022/08/06 09:41:10;;;;;;;;;;;;;;;21.15;49.72;102741.00;5095278;28;20028;-46
2022/08/06 09:43:37;;;;;;;3.13;0.52;;;;;;;20.95;43.80;102743.31;5093799;28;19923;-45
2022/08/06 09:46:05;;;;;;;3.90;0.70;;;;;;;21.04;45.50;102744.38;5094811;28;20070;-47
2022/08/06 09:48:30;;;;;;;3.03;0.80;;;;;;;20.99;43.23;102745.13;5094508;28;20024;-47
2022/08/06 09:50:55;;;;;;;5.53;0.60;;;;;;;20.76;40.88;102747.38;5093104;28;20039;-45
2022/08/06 09:53:22;;;;;;;3.22;0.63;;;;;;;20.87;42.42;102751.06;5093582;28;20364;-50
2022/08/06 09:55:52;;;;;;;2.58;0.50;;;;;;;21.14;42.36;102755.88;5093733;28;20024;-45
2022/08/06 09:58:37;;;;;;;6.22;0.90;;;;;;;21.49;43.05;102754.66;5094833;28;20073;-47
2022/08/06 10:01:21;;;;;;;2.53;0.70;;;;;;;22.35;42.38;102758.41;5094536;28;20024;-45
2022/08/06 10:03:47;;;;;;;2.70;0.60;;;;;;;23.90;39.38;102749.13;5093533;28;20105;-47
2022/08/06 10:06:16;;;;;;;2.58;0.80;;;;;;;23.56;38.62;102748.06;5094285;28;20068;-48
2022/08/06 10:08:43;;;;;;;2.53;0.60;;;;;;;24.14;37.82;102747.44;5094179;28;20024;-50
2022/08/06 10:11:09;;;;;;;3.93;0.63;;;;;;;25.02;36.53;102746.72;5093936;28;20464;-49
2022/08/06 10:13:36;;;;;;;2.60;0.57;;;;;;;25.54;35.66;102746.66;5094399;28;20016;-50
2022/08/06 10:16:18;;;;;;;3.55;0.70;;;;;;;26.00;35.26;102748.22;5093941;28;20429;-49
2022/08/06 10:18:46;;;;;;;1.38;0.68;;;;;;;26.27;31.29;102739.31;5093408;28;20031;-50
2022/08/06 10:21:16;;;;;;;3.63;0.70;;;;;;;25.99;32.59;102751.78;5094008;28;20380;-48
2022/08/06 10:23:45;;;;;;;2.20;0.70;;;;;;;24.60;33.64;102747.56;5093966;28;20031;-49
2022/08/06 10:26:12;;;;;;;2.42;0.63;;;;;;;24.14;35.52;102745.72;5093884;28;20024;-49
2022/08/06 10:28:42;;;;;;;2.50;0.63;;;;;;;24.98;34.18;102741.44;5093973;28;20032;-48
2022/08/06 10:31:10;;;;;;;2.92;0.60;;;;;;;26.19;32.18;102733.19;5093245;28;20058;-46
2022/08/06 10:34:13;;;;;;;3.40;0.68;;;;;;;26.95;33.82;102730.88;5094069;28;20020;-45
2022/08/06 10:36:51;;;;;;;4.38;0.60;;;;;;;27.70;32.00;102725.69;5090354;28;20467;-45
2022/08/06 10:39:24;;;;;;;6.45;0.77;;;;;;;28.08;30.11;102726.09;5093445;28;20032;-47
2022/08/06 10:41:51;;;;;;;4.85;0.88;;;;;;;26.55;32.19;102731.19;5093761;28;20035;-46
2022/08/06 10:44:17;;;;;;;4.03;0.73;;;;;;;25.20;32.53;102728.22;5093502;28;20040;-45
2022/08/06 10:46:42;;;;;;;4.15;0.77;;;;;;;24.12;34.55;102722.88;5092883;28;20032;-46
2022/08/06 10:49:09;;;;;;;2.25;0.65;;;;;;;23.70;36.31;102719.19;5094010;28;20035;-48
2022/08/06 10:51:36;;;;;;;2.43;0.50;;;;;;;24.47;33.30;102719.44;5093060;28;20107;-46
2022/08/06 10:54:01;;;;;;;3.10;0.75;;;;;;;25.51;31.50;102722.03;5092983;28;20111;-50
2022/08/06 10:56:28;;;;;;;3.08;0.50;;;;;;;26.48;31.04;102729.47;5093883;28;20110;-46
2022/08/06 10:58:53;;;;;;;2.05;0.55;;;;;;;27.19;28.80;102722.69;5093297;28;20081;-46
2022/08/06 11:01:33;;;;;;;2.38;0.50;;;;;;;28.11;30.19;102719.88;5093159;28;20424;-46
2022/08/06 11:04:20;;;;;;;3.15;0.60;;;;;;;28.87;29.37;102723.09;5093118;28;20036;-50
2022/08/06 11:07:08;;;;;;;3.38;0.60;;;;;;;28.67;27.68;102719.91;5091731;28;20051;-47
2022/08/06 11:09:59;;;;;;;2.30;0.60;;;;;;;29.48;28.23;102719.34;5092801;28;20368;-43
2022/08/06 11:12:52;;;;;;;2.42;0.47;;;;;;;30.13;25.90;102707.31;5093161;28;20148;-48
2022/08/06 11:15:20;;;;;;;3.20;0.60;;;;;;;30.74;24.76;102710.25;5092638;28;20119;-48
2022/08/06 11:17:47;;;;;;;2.38;0.65;;;;;;;30.59;23.61;102710.66;5092538;28;20028;-43
2022/08/06 11:20:31;;;;;;;2.45;0.50;;;;;;;30.83;26.09;102715.38;5092138;28;20024;-48
2022/08/06 11:22:56;;;;;;;2.33;0.40;;;;;;;30.54;24.42;102711.66;5092818;28;20036;-47
2022/08/06 11:25:43;;;;;;;2.95;0.40;;;;;;;31.22;25.90;102714.34;5092863;28;20024;-43
2022/08/06 11:28:17;;;;;;;2.78;0.60;;;;;;;31.69;22.98;102705.91;5092616;28;20028;-48
2022/08/06 11:30:50;;;;;;;3.22;0.60;;;;;;;32.41;23.35;102710.75;5092996;28;20024;-48
2022/08/06 11:33:19;;;;;;;2.03;0.60;;;;;;;32.54;22.33;102705.88;5092615;28;20368;-43
2022/08/06 11:35:50;;;;;;;3.33;0.50;;;;;;;31.76;22.62;102707.44;5091165;28;20028;-48
2022/08/06 11:38:48;;;;;;;2.28;0.63;;;;;;;31.13;25.35;102707.47;5093243;28;20111;-44